Hardinsburg, KY

9:26 PM CDT on August 01, 2014 (GMT -0500)
Eveleigh Road (KKYLEITC8) Elev 670 ft | 37.58 °N, 86.34 °W | Change Station

Current weather conditions updated 9 seconds ago

Clear
Clear
70.5 °F
Feels Like 73 °F
N
0.0
Wind Variable Wind from East
Gusts 1.6 mph

Tomorrow is forecast to be Cooler than today. Partly cloudy with a stray thunderstorm.

Today
High -- | Low -- °F
--% Chance of Precip.
Yesterday
High -- | Low -- °F
Precip. -- in
5:49 AM 7:54 PM
Waxing Crescent, 31% visible
Pressure 30.05 in
Visibility 10.0 miles
Clouds Clear
Heat Index 73 °F
Dew Point 62 °F
Humidity 74%
Rainfall 0.00 in
Snow Depth Not available.
UV 0 out of 12
Pollen 5.10 out of 12
Ozone Good
PM2.5 Moderate
Flu Activity Not available.
METAR KFTK 020158Z AUTO 34002KT 10SM CLR 19/17 A3005 RMK AO2 SLP174 T01930168

More Conditions Fewer Conditions

Pressure 30.05 in
Visibility 10.0 miles
Clouds Clear
Heat Index 73 °F
Dew Point 62 °F
Humidity 74%
Rainfall 0.00 in
Snow Depth Not available.
UV 0 out of 12
Pollen 5.10 out of 12
Ozone Good
PM2.5 Moderate
Flu Activity Not available.
METAR KFTK 020158Z AUTO 34002KT 10SM CLR 19/17 A3005 RMK AO2 SLP174 T01930168

More Conditions Fewer Conditions

10-Day Weather Forecast

Almanac

Astronomy

Aug. 01, 2014 Rise Set
Actual Time 5:49 AM CDT 7:54 PM CDT
Civil Twilight 5:20 AM CDT 8:23 PM CDT
Nautical Twilight 4:44 AM CDT 8:58 PM CDT
Astronomical Twilight 4:06 AM CDT 9:37 PM CDT
Moon 11:05 AM CDT (8/1) 10:45 PM CDT (8/1)
Length of Visible Light 15h 03m
Length of Day
14h 05m
Tomorrow will be 1m 50s shorter.
Waxing Crescent, 31% of the Moon is Illuminated
Today
Waxing Crescent
Aug 3
First Quarter
Aug 10
Full
Aug 17
Last Quarter
Aug 25
New

Today's Extremes

State Highs State Lows

Community

WunderPhotos

Upload Photos

1,739,807 photos uploaded!

Nearby

Air Quality

  Air Quality AQ Index Pollutant
Yesterday Moderate
OZONE
Yesterday Good
PM10
Current Moderate
PM2.5
Current Good
OZONE
Friday Moderate
PM2.5
Friday Good
OZONE
Saturday Moderate
PM2.5
Saturday Good
OZONE
Sunday Moderate
PM2.5
Sunday Moderate
OZONE
Monday Moderate
OZONE
Monday Moderate
PM2.5

Snow Depth

Station Depth Elevation
No new snow has been reported.

Earthquake Activity

City Distance Mag. Time & Date
No recent earthquake activity has been reported nearby.
Minimum magnitude displayed is 2.5.

Coastal Water Temperatures

Place Temperature
No Stations Reporting

Nearby Weather Stations

Station Location Temp. Heat Index Dew Point Humidity Wind Precip. Elev Updated Type
Eveleigh Road, Leitchfield, KY 70.5 °F 73 °F 62 °F 74% East  at  0.0 mph 0.00 in / hr 670 ft 9:26 PM CDT Rapid Fire
Old Weldon, Brandenburg, KY 72.6 °F 73 °F 65 °F 78% SW  at  0.0 mph 0.00 in / hr 636 ft 10:25 PM EDT Normal
Wandering Meadows, Vine Grove, KY 66.9 °F - 62 °F 85% South  at  0.0 mph - / hr 719 ft 10:15 PM EDT Normal
Farmington Estates, Vine Grove, KY 65.5 °F - 62 °F 87% WNW  at  0.0 mph - / hr 669 ft 10:23 PM EDT Normal

Show More Stations Show Fewer Stations